Friday, February 23, 2018, 6:36 PM GMT
Back to Local

CWDQ, La Tuque

Location: , , Canada Lat: 47.417
Local Time: 6:36 PM GMT (18:36 GMT) Lon: -72.8
Time Zone: GMT Elev: 554 ft

Show me the last for .
Show Decoded

2018-02-23 18:00 METAR CWDQ 231800Z AUTO 19007KT M04/M14 RMK AO1 PRESFR SOG 50 8081 SLP281
                 T10411138 =
2018-02-23 17:00 METAR CWDQ 231700Z AUTO 17008KT M05/M14 RMK AO1 SOG 50 8057 PK WND 17017/1648
                 SLP320 T10491139 =
2018-02-23 16:00 METAR CWDQ 231600Z AUTO 25001KT M09/M15 RMK AO1 PRESFR SOG 50 8054 SLP338
                 T10931149 =
2018-02-23 15:00 METAR CWDQ 231500Z AUTO 00000KT M14/M18 RMK AO1 SOG 50 8028 SLP366 T11411180 =
2018-02-23 14:00 METAR CWDQ 231400Z AUTO 00000KT M18/M20 RMK AO1 SOG 50 8023 SLP381 T11801198 =
2018-02-23 13:00 METAR CWDQ 231300Z AUTO 30001KT M20/M22 RMK AO1 SOG 50 6014 SLP395 T12011220 =
2018-02-23 12:00 METAR CWDQ 231200Z AUTO 00000KT M24/M27 RMK AO1 SOG 50 8019 SLP396 T12351268 =
2018-02-23 11:00 METAR CWDQ 231100Z AUTO 09001KT M24/M26 RMK AO1 SOG 50 8007 SLP405 T12391263 =
2018-02-23 10:00 METAR CWDQ 231000Z AUTO 00000KT M23/M26 RMK AO1 SOG 50 6011 SLP408 T12331256 =
2018-02-23 09:00 METAR CWDQ 230900Z AUTO 08001KT M21/M23 RMK AO1 SOG 50 5008 SLP413 T12091228 =
2018-02-23 08:00 METAR CWDQ 230800Z AUTO 00000KT M23/M25 RMK AO1 SOG 50 8011 SLP411 T12291251 =
2018-02-23 07:00 METAR CWDQ 230700Z AUTO 10001KT M21/M23 RMK AO1 SOG 50 7006 SLP419 T12131231 =
2018-02-23 06:00 METAR CWDQ 230600Z AUTO 10001KT M20/M21 RMK AO1 SOG 50 1004 T11971214 =
2018-02-23 05:00 METAR CWDQ 230500Z AUTO 00000KT M19/M21 RMK AO1 SOG 50 0008 T11931209 =
2018-02-23 04:00 METAR CWDQ 230400Z AUTO 00000KT M19/M20 RMK AO1 SOG 50 3009 T11901203 =
2018-02-23 03:00 METAR CWDQ 230300Z AUTO 11002KT M16/M18 RMK AO1 SOG 50 5000 T11641177 =
2018-02-23 02:00 METAR CWDQ 230200Z AUTO 10001KT M17/M19 RMK AO1 SOG 49 0004 T11711187 =
2018-02-23 01:00 METAR CWDQ 230100Z AUTO 10001KT M14/M17 RMK AO1 SOG 50 0009 T11421168 =
2018-02-23 00:00 METAR CWDQ 230000Z AUTO 11002KT M13/M17 RMK AO1 SOG 49 3012 T11271167 =
2018-02-22 23:00 METAR CWDQ 222300Z AUTO 14001KT M11/M16 RMK AO1 SOG 50 3002 T11081158 =
2018-02-22 22:00 METAR CWDQ 222200Z AUTO 05001KT M06/M16 RMK AO1 SOG 50 5003 T10641162 =
2018-02-22 21:00 METAR CWDQ 222100Z AUTO 35003KT M06/M17 RMK AO1 SOG 50 T10641168 =
2018-02-22 20:00 METAR CWDQ 222000Z AUTO 36003KT M07/M16 RMK AO1 SOG 50 T10661155 =
2018-02-22 19:00 METAR CWDQ 221900Z AUTO 34006KT M08/M16 RMK AO1 SOG 50 T10781161 =

Support USWX by starting your Amazon purchase here.